sensor_id;sensor_type;location;lat;lon;timestamp;P1;durP1;ratioP1;P2;durP2;ratioP2
11761;SDS011;5938;47.098;15.474;2023-04-02T00:01:33;1.60;;;1.50;;
11761;SDS011;5938;47.098;15.474;2023-04-02T00:05:40;2.50;;;1.57;;
11761;SDS011;5938;47.098;15.474;2023-04-02T00:09:56;2.60;;;1.50;;
11761;SDS011;5938;47.098;15.474;2023-04-02T00:14:01;1.43;;;1.33;;
11761;SDS011;5938;47.098;15.474;2023-04-02T00:18:05;3.27;;;1.57;;
11761;SDS011;5938;47.098;15.474;2023-04-02T00:22:14;1.50;;;1.40;;
11761;SDS011;5938;47.098;15.474;2023-04-02T00:26:30;1.57;;;1.47;;
11761;SDS011;5938;47.098;15.474;2023-04-02T00:30:36;1.70;;;1.37;;
11761;SDS011;5938;47.098;15.474;2023-04-02T00:34:46;2.00;;;1.80;;
11761;SDS011;5938;47.098;15.474;2023-04-02T00:38:50;1.53;;;1.40;;
11761;SDS011;5938;47.098;15.474;2023-04-02T00:42:58;3.27;;;1.47;;
11761;SDS011;5938;47.098;15.474;2023-04-02T00:47:06;3.13;;;1.80;;
11761;SDS011;5938;47.098;15.474;2023-04-02T00:51:16;1.43;;;1.20;;
11761;SDS011;5938;47.098;15.474;2023-04-02T00:55:23;2.20;;;1.40;;
11761;SDS011;5938;47.098;15.474;2023-04-02T00:59:34;3.60;;;1.87;;
11761;SDS011;5938;47.098;15.474;2023-04-02T01:03:51;3.30;;;1.80;;
11761;SDS011;5938;47.098;15.474;2023-04-02T01:08:00;3.43;;;1.43;;
11761;SDS011;5938;47.098;15.474;2023-04-02T01:12:10;2.30;;;2.10;;
11761;SDS011;5938;47.098;15.474;2023-04-02T01:16:34;1.63;;;1.53;;
11761;SDS011;5938;47.098;15.474;2023-04-02T01:20:57;2.47;;;1.60;;
11761;SDS011;5938;47.098;15.474;2023-04-02T01:25:23;1.33;;;1.23;;
11761;SDS011;5938;47.098;15.474;2023-04-02T01:29:33;1.00;;;0.90;;
11761;SDS011;5938;47.098;15.474;2023-04-02T01:33:39;3.83;;;2.00;;
11761;SDS011;5938;47.098;15.474;2023-04-02T01:37:44;1.90;;;1.30;;
11761;SDS011;5938;47.098;15.474;2023-04-02T01:41:55;1.40;;;1.30;;
11761;SDS011;5938;47.098;15.474;2023-04-02T01:46:22;1.70;;;1.50;;
11761;SDS011;5938;47.098;15.474;2023-04-02T01:50:29;2.93;;;1.40;;
11761;SDS011;5938;47.098;15.474;2023-04-02T01:54:37;1.90;;;1.37;;
11761;SDS011;5938;47.098;15.474;2023-04-02T01:58:41;2.40;;;1.63;;
11761;SDS011;5938;47.098;15.474;2023-04-02T02:02:47;2.40;;;1.47;;
11761;SDS011;5938;47.098;15.474;2023-04-02T02:06:51;1.97;;;1.20;;
11761;SDS011;5938;47.098;15.474;2023-04-02T02:10:57;1.50;;;1.27;;
11761;SDS011;5938;47.098;15.474;2023-04-02T02:15:01;1.77;;;1.50;;
11761;SDS011;5938;47.098;15.474;2023-04-02T02:19:07;2.47;;;1.50;;
11761;SDS011;5938;47.098;15.474;2023-04-02T02:23:22;1.60;;;1.20;;
11761;SDS011;5938;47.098;15.474;2023-04-02T02:27:41;2.17;;;1.50;;
11761;SDS011;5938;47.098;15.474;2023-04-02T02:31:49;2.27;;;2.00;;
11761;SDS011;5938;47.098;15.474;2023-04-02T02:35:57;2.23;;;1.50;;
11761;SDS011;5938;47.098;15.474;2023-04-02T02:40:02;1.93;;;1.50;;
11761;SDS011;5938;47.098;15.474;2023-04-02T02:44:13;2.43;;;1.37;;
11761;SDS011;5938;47.098;15.474;2023-04-02T02:48:22;2.40;;;1.40;;
11761;SDS011;5938;47.098;15.474;2023-04-02T02:52:31;1.57;;;1.37;;
11761;SDS011;5938;47.098;15.474;2023-04-02T02:56:39;1.40;;;1.10;;
11761;SDS011;5938;47.098;15.474;2023-04-02T03:00:47;1.63;;;1.50;;
11761;SDS011;5938;47.098;15.474;2023-04-02T03:04:52;1.43;;;1.33;;
11761;SDS011;5938;47.098;15.474;2023-04-02T03:09:00;1.40;;;1.27;;
11761;SDS011;5938;47.098;15.474;2023-04-02T03:13:07;1.77;;;1.47;;
11761;SDS011;5938;47.098;15.474;2023-04-02T03:17:23;1.43;;;1.30;;
11761;SDS011;5938;47.098;15.474;2023-04-02T03:21:33;1.63;;;1.20;;
11761;SDS011;5938;47.098;15.474;2023-04-02T03:25:44;1.83;;;1.60;;
11761;SDS011;5938;47.098;15.474;2023-04-02T03:29:59;1.50;;;1.40;;
11761;SDS011;5938;47.098;15.474;2023-04-02T03:34:08;2.03;;;1.30;;
11761;SDS011;5938;47.098;15.474;2023-04-02T03:38:17;1.53;;;1.37;;
11761;SDS011;5938;47.098;15.474;2023-04-02T03:42:26;1.73;;;1.63;;
11761;SDS011;5938;47.098;15.474;2023-04-02T03:46:32;1.63;;;1.40;;
11761;SDS011;5938;47.098;15.474;2023-04-02T03:50:40;1.37;;;1.20;;
11761;SDS011;5938;47.098;15.474;2023-04-02T03:54:48;1.73;;;1.10;;
11761;SDS011;5938;47.098;15.474;2023-04-02T03:59:00;1.60;;;1.50;;
11761;SDS011;5938;47.098;15.474;2023-04-02T04:03:13;1.83;;;1.30;;
11761;SDS011;5938;47.098;15.474;2023-04-02T04:07:21;2.80;;;1.17;;
11761;SDS011;5938;47.098;15.474;2023-04-02T04:11:33;2.47;;;1.90;;
11761;SDS011;5938;47.098;15.474;2023-04-02T04:15:41;1.53;;;1.10;;
11761;SDS011;5938;47.098;15.474;2023-04-02T04:19:51;1.97;;;1.50;;
11761;SDS011;5938;47.098;15.474;2023-04-02T04:24:00;2.73;;;1.27;;
11761;SDS011;5938;47.098;15.474;2023-04-02T04:28:09;1.60;;;1.50;;
11761;SDS011;5938;47.098;15.474;2023-04-02T04:32:23;1.87;;;1.30;;
11761;SDS011;5938;47.098;15.474;2023-04-02T04:36:34;2.00;;;1.60;;
11761;SDS011;5938;47.098;15.474;2023-04-02T04:40:55;1.30;;;1.10;;
11761;SDS011;5938;47.098;15.474;2023-04-02T04:45:05;1.70;;;1.47;;
11761;SDS011;5938;47.098;15.474;2023-04-02T04:49:19;2.10;;;1.57;;
11761;SDS011;5938;47.098;15.474;2023-04-02T04:53:27;2.77;;;1.37;;
11761;SDS011;5938;47.098;15.474;2023-04-02T04:57:32;3.70;;;2.40;;
11761;SDS011;5938;47.098;15.474;2023-04-02T05:01:39;3.10;;;2.80;;
11761;SDS011;5938;47.098;15.474;2023-04-02T05:05:48;2.93;;;2.63;;
11761;SDS011;5938;47.098;15.474;2023-04-02T05:09:54;4.20;;;3.53;;
11761;SDS011;5938;47.098;15.474;2023-04-02T05:14:02;3.10;;;2.83;;
11761;SDS011;5938;47.098;15.474;2023-04-02T05:18:12;3.30;;;3.00;;
11761;SDS011;5938;47.098;15.474;2023-04-02T05:22:26;4.70;;;2.97;;
11761;SDS011;5938;47.098;15.474;2023-04-02T05:26:41;2.80;;;2.23;;
11761;SDS011;5938;47.098;15.474;2023-04-02T05:30:48;2.33;;;2.13;;
11761;SDS011;5938;47.098;15.474;2023-04-02T05:34:55;2.37;;;1.93;;
11761;SDS011;5938;47.098;15.474;2023-04-02T05:39:01;8.63;;;5.30;;
11761;SDS011;5938;47.098;15.474;2023-04-02T05:43:10;4.40;;;3.40;;
11761;SDS011;5938;47.098;15.474;2023-04-02T05:47:20;4.03;;;3.67;;
11761;SDS011;5938;47.098;15.474;2023-04-02T05:51:27;4.07;;;3.43;;
11761;SDS011;5938;47.098;15.474;2023-04-02T05:55:43;3.47;;;3.17;;
11761;SDS011;5938;47.098;15.474;2023-04-02T05:59:55;3.60;;;2.90;;
11761;SDS011;5938;47.098;15.474;2023-04-02T06:04:04;4.17;;;2.07;;
11761;SDS011;5938;47.098;15.474;2023-04-02T06:08:14;4.50;;;3.27;;
11761;SDS011;5938;47.098;15.474;2023-04-02T06:12:25;2.97;;;2.77;;
11761;SDS011;5938;47.098;15.474;2023-04-02T06:16:32;3.40;;;3.00;;
11761;SDS011;5938;47.098;15.474;2023-04-02T06:20:38;3.90;;;2.60;;
11761;SDS011;5938;47.098;15.474;2023-04-02T06:24:42;2.80;;;2.60;;
11761;SDS011;5938;47.098;15.474;2023-04-02T06:28:49;3.20;;;3.00;;
11761;SDS011;5938;47.098;15.474;2023-04-02T06:32:57;2.50;;;2.30;;
11761;SDS011;5938;47.098;15.474;2023-04-02T06:37:02;3.70;;;3.03;;
11761;SDS011;5938;47.098;15.474;2023-04-02T06:41:15;2.43;;;2.23;;
11761;SDS011;5938;47.098;15.474;2023-04-02T06:45:24;1.87;;;1.77;;
11761;SDS011;5938;47.098;15.474;2023-04-02T06:49:31;1.70;;;1.60;;
11761;SDS011;5938;47.098;15.474;2023-04-02T06:53:41;2.10;;;1.90;;
11761;SDS011;5938;47.098;15.474;2023-04-02T06:57:46;2.73;;;1.70;;
11761;SDS011;5938;47.098;15.474;2023-04-02T07:01:53;1.93;;;1.23;;
11761;SDS011;5938;47.098;15.474;2023-04-02T07:05:59;2.27;;;1.70;;
11761;SDS011;5938;47.098;15.474;2023-04-02T07:10:06;1.77;;;1.40;;
11761;SDS011;5938;47.098;15.474;2023-04-02T07:14:11;1.30;;;1.20;;
11761;SDS011;5938;47.098;15.474;2023-04-02T07:18:26;1.53;;;1.43;;
11761;SDS011;5938;47.098;15.474;2023-04-02T07:22:31;1.83;;;1.50;;
11761;SDS011;5938;47.098;15.474;2023-04-02T07:26:34;1.33;;;1.20;;
11761;SDS011;5938;47.098;15.474;2023-04-02T07:30:38;2.60;;;1.83;;
11761;SDS011;5938;47.098;15.474;2023-04-02T07:34:42;2.03;;;1.30;;
11761;SDS011;5938;47.098;15.474;2023-04-02T07:38:47;1.63;;;1.30;;
11761;SDS011;5938;47.098;15.474;2023-04-02T07:42:50;2.17;;;1.50;;
11761;SDS011;5938;47.098;15.474;2023-04-02T07:46:54;1.90;;;1.70;;
11761;SDS011;5938;47.098;15.474;2023-04-02T07:50:58;5.03;;;1.70;;
11761;SDS011;5938;47.098;15.474;2023-04-02T07:55:04;3.97;;;1.77;;
11761;SDS011;5938;47.098;15.474;2023-04-02T07:59:08;1.50;;;1.40;;
11761;SDS011;5938;47.098;15.474;2023-04-02T08:03:12;1.97;;;1.20;;
11761;SDS011;5938;47.098;15.474;2023-04-02T08:07:18;1.47;;;1.30;;
11761;SDS011;5938;47.098;15.474;2023-04-02T08:11:22;2.07;;;1.40;;
11761;SDS011;5938;47.098;15.474;2023-04-02T08:15:25;1.30;;;1.20;;
11761;SDS011;5938;47.098;15.474;2023-04-02T08:19:29;1.33;;;1.03;;
11761;SDS011;5938;47.098;15.474;2023-04-02T08:23:46;1.57;;;1.40;;
11761;SDS011;5938;47.098;15.474;2023-04-02T08:27:49;1.90;;;0.90;;
11761;SDS011;5938;47.098;15.474;2023-04-02T08:31:52;1.33;;;1.00;;
11761;SDS011;5938;47.098;15.474;2023-04-02T08:35:56;1.27;;;1.10;;
11761;SDS011;5938;47.098;15.474;2023-04-02T08:40:01;1.13;;;1.00;;
11761;SDS011;5938;47.098;15.474;2023-04-02T08:44:08;2.13;;;0.80;;
11761;SDS011;5938;47.098;15.474;2023-04-02T08:48:29;1.30;;;0.90;;
11761;SDS011;5938;47.098;15.474;2023-04-02T08:52:36;1.50;;;0.80;;
11761;SDS011;5938;47.098;15.474;2023-04-02T08:56:45;2.67;;;0.90;;
11761;SDS011;5938;47.098;15.474;2023-04-02T09:00:54;1.20;;;0.87;;
11761;SDS011;5938;47.098;15.474;2023-04-02T09:05:00;1.53;;;1.33;;
11761;SDS011;5938;47.098;15.474;2023-04-02T09:09:06;1.57;;;1.10;;
11761;SDS011;5938;47.098;15.474;2023-04-02T09:13:15;2.70;;;1.60;;
11761;SDS011;5938;47.098;15.474;2023-04-02T09:17:24;4.37;;;1.50;;
11761;SDS011;5938;47.098;15.474;2023-04-02T09:21:32;2.10;;;1.73;;
11761;SDS011;5938;47.098;15.474;2023-04-02T09:25:40;1.20;;;1.00;;
11761;SDS011;5938;47.098;15.474;2023-04-02T09:30:09;1.30;;;1.20;;
11761;SDS011;5938;47.098;15.474;2023-04-02T09:34:27;1.77;;;1.40;;
11761;SDS011;5938;47.098;15.474;2023-04-02T09:38:32;2.20;;;2.00;;
11761;SDS011;5938;47.098;15.474;2023-04-02T09:42:36;2.00;;;1.50;;
11761;SDS011;5938;47.098;15.474;2023-04-02T09:46:47;1.40;;;1.30;;
11761;SDS011;5938;47.098;15.474;2023-04-02T09:51:02;1.10;;;1.00;;
11761;SDS011;5938;47.098;15.474;2023-04-02T09:55:18;1.67;;;1.33;;
11761;SDS011;5938;47.098;15.474;2023-04-02T09:59:24;2.60;;;0.90;;
11761;SDS011;5938;47.098;15.474;2023-04-02T10:03:30;1.40;;;1.30;;
11761;SDS011;5938;47.098;15.474;2023-04-02T10:07:35;1.27;;;1.17;;
11761;SDS011;5938;47.098;15.474;2023-04-02T10:11:41;0.70;;;0.70;;
11761;SDS011;5938;47.098;15.474;2023-04-02T10:15:48;1.07;;;0.97;;
11761;SDS011;5938;47.098;15.474;2023-04-02T10:19:57;0.70;;;0.60;;
11761;SDS011;5938;47.098;15.474;2023-04-02T10:24:09;0.60;;;0.50;;
11761;SDS011;5938;47.098;15.474;2023-04-02T10:28:16;0.70;;;0.70;;
11761;SDS011;5938;47.098;15.474;2023-04-02T10:32:31;1.23;;;1.00;;
11761;SDS011;5938;47.098;15.474;2023-04-02T10:36:43;0.67;;;0.50;;
11761;SDS011;5938;47.098;15.474;2023-04-02T10:40:57;0.80;;;0.70;;
11761;SDS011;5938;47.098;15.474;2023-04-02T10:45:03;1.17;;;0.90;;
11761;SDS011;5938;47.098;15.474;2023-04-02T10:49:23;2.10;;;0.67;;
11761;SDS011;5938;47.098;15.474;2023-04-02T10:53:36;0.77;;;0.70;;
11761;SDS011;5938;47.098;15.474;2023-04-02T10:57:45;1.20;;;1.10;;
11761;SDS011;5938;47.098;15.474;2023-04-02T11:01:48;0.80;;;0.80;;
11761;SDS011;5938;47.098;15.474;2023-04-02T11:05:55;2.50;;;0.70;;
11761;SDS011;5938;47.098;15.474;2023-04-02T11:10:02;0.93;;;0.83;;
11761;SDS011;5938;47.098;15.474;2023-04-02T11:14:09;0.83;;;0.67;;
11761;SDS011;5938;47.098;15.474;2023-04-02T11:18:25;0.63;;;0.63;;
11761;SDS011;5938;47.098;15.474;2023-04-02T11:22:34;1.20;;;0.90;;
11761;SDS011;5938;47.098;15.474;2023-04-02T11:26:39;1.03;;;0.80;;
11761;SDS011;5938;47.098;15.474;2023-04-02T11:30:46;0.80;;;0.80;;
11761;SDS011;5938;47.098;15.474;2023-04-02T11:39:44;1.57;;;0.60;;
11761;SDS011;5938;47.098;15.474;2023-04-02T11:44:03;0.30;;;0.30;;
11761;SDS011;5938;47.098;15.474;2023-04-02T11:52:37;1.53;;;0.40;;
11761;SDS011;5938;47.098;15.474;2023-04-02T11:56:55;0.50;;;0.43;;
11761;SDS011;5938;47.098;15.474;2023-04-02T12:05:46;0.40;;;0.40;;
11761;SDS011;5938;47.098;15.474;2023-04-02T12:09:56;0.90;;;0.30;;
11761;SDS011;5938;47.098;15.474;2023-04-02T12:14:05;0.30;;;0.20;;
11761;SDS011;5938;47.098;15.474;2023-04-02T12:18:25;0.50;;;0.40;;
11761;SDS011;5938;47.098;15.474;2023-04-02T12:22:30;0.50;;;0.40;;
11761;SDS011;5938;47.098;15.474;2023-04-02T12:26:35;0.40;;;0.30;;
11761;SDS011;5938;47.098;15.474;2023-04-02T12:30:39;0.30;;;0.30;;
11761;SDS011;5938;47.098;15.474;2023-04-02T12:34:44;0.50;;;0.50;;
11761;SDS011;5938;47.098;15.474;2023-04-02T12:38:49;0.40;;;0.30;;
11761;SDS011;5938;47.098;15.474;2023-04-02T12:42:55;0.43;;;0.37;;
11761;SDS011;5938;47.098;15.474;2023-04-02T12:46:58;0.50;;;0.30;;
11761;SDS011;5938;47.098;15.474;2023-04-02T12:51:03;0.80;;;0.50;;
11761;SDS011;5938;47.098;15.474;2023-04-02T12:55:14;0.60;;;0.33;;
11761;SDS011;5938;47.098;15.474;2023-04-02T12:59:28;0.30;;;0.20;;
11761;SDS011;5938;47.098;15.474;2023-04-02T13:03:36;0.30;;;0.27;;
11761;SDS011;5938;47.098;15.474;2023-04-02T13:07:42;1.53;;;0.30;;
11761;SDS011;5938;47.098;15.474;2023-04-02T13:11:49;0.60;;;0.30;;
11761;SDS011;5938;47.098;15.474;2023-04-02T13:16:00;0.40;;;0.30;;
11761;SDS011;5938;47.098;15.474;2023-04-02T13:24:35;1.17;;;0.30;;
11761;SDS011;5938;47.098;15.474;2023-04-02T13:28:39;0.30;;;0.27;;
11761;SDS011;5938;47.098;15.474;2023-04-02T13:32:43;1.70;;;1.60;;
11761;SDS011;5938;47.098;15.474;2023-04-02T13:36:47;0.53;;;0.33;;
11761;SDS011;5938;47.098;15.474;2023-04-02T13:40:52;0.40;;;0.30;;
11761;SDS011;5938;47.098;15.474;2023-04-02T13:44:55;0.40;;;0.30;;
11761;SDS011;5938;47.098;15.474;2023-04-02T13:48:59;0.30;;;0.30;;
11761;SDS011;5938;47.098;15.474;2023-04-02T13:53:05;1.10;;;0.30;;
11761;SDS011;5938;47.098;15.474;2023-04-02T13:57:13;0.50;;;0.40;;
11761;SDS011;5938;47.098;15.474;2023-04-02T14:01:17;0.40;;;0.30;;
11761;SDS011;5938;47.098;15.474;2023-04-02T14:05:29;0.57;;;0.40;;
11761;SDS011;5938;47.098;15.474;2023-04-02T14:09:41;0.40;;;0.30;;
11761;SDS011;5938;47.098;15.474;2023-04-02T14:14:04;0.40;;;0.40;;
11761;SDS011;5938;47.098;15.474;2023-04-02T14:18:28;0.47;;;0.30;;
11761;SDS011;5938;47.098;15.474;2023-04-02T14:22:48;0.40;;;0.30;;
11761;SDS011;5938;47.098;15.474;2023-04-02T14:27:12;0.80;;;0.40;;
11761;SDS011;5938;47.098;15.474;2023-04-02T14:31:28;1.10;;;0.40;;
11761;SDS011;5938;47.098;15.474;2023-04-02T14:35:37;0.50;;;0.40;;
11761;SDS011;5938;47.098;15.474;2023-04-02T14:39:48;0.40;;;0.30;;
11761;SDS011;5938;47.098;15.474;2023-04-02T14:44:02;1.60;;;0.27;;
11761;SDS011;5938;47.098;15.474;2023-04-02T14:48:12;1.23;;;0.80;;
11761;SDS011;5938;47.098;15.474;2023-04-02T14:52:28;0.30;;;0.20;;
11761;SDS011;5938;47.098;15.474;2023-04-02T14:56:36;0.40;;;0.20;;
11761;SDS011;5938;47.098;15.474;2023-04-02T15:00:44;0.30;;;0.30;;
11761;SDS011;5938;47.098;15.474;2023-04-02T15:04:59;3.40;;;0.60;;
11761;SDS011;5938;47.098;15.474;2023-04-02T15:09:09;0.30;;;0.30;;
11761;SDS011;5938;47.098;15.474;2023-04-02T15:13:18;1.30;;;0.30;;
11761;SDS011;5938;47.098;15.474;2023-04-02T15:17:26;1.27;;;0.50;;
11761;SDS011;5938;47.098;15.474;2023-04-02T15:26:17;0.40;;;0.40;;
11761;SDS011;5938;47.098;15.474;2023-04-02T15:30:28;0.70;;;0.50;;
11761;SDS011;5938;47.098;15.474;2023-04-02T15:34:38;0.50;;;0.50;;
11761;SDS011;5938;47.098;15.474;2023-04-02T15:38:48;2.10;;;0.77;;
11761;SDS011;5938;47.098;15.474;2023-04-02T15:43:04;2.10;;;1.57;;
11761;SDS011;5938;47.098;15.474;2023-04-02T15:47:19;1.03;;;0.80;;
11761;SDS011;5938;47.098;15.474;2023-04-02T15:51:43;0.93;;;0.87;;
11761;SDS011;5938;47.098;15.474;2023-04-02T15:56:03;1.70;;;1.07;;
11761;SDS011;5938;47.098;15.474;2023-04-02T16:00:20;3.13;;;1.63;;
11761;SDS011;5938;47.098;15.474;2023-04-02T16:04:37;2.33;;;1.70;;
11761;SDS011;5938;47.098;15.474;2023-04-02T16:08:54;0.87;;;0.77;;
11761;SDS011;5938;47.098;15.474;2023-04-02T16:13:22;2.13;;;1.10;;
11761;SDS011;5938;47.098;15.474;2023-04-02T16:17:32;0.60;;;0.57;;
11761;SDS011;5938;47.098;15.474;2023-04-02T16:21:46;1.27;;;0.43;;
11761;SDS011;5938;47.098;15.474;2023-04-02T16:25:56;2.53;;;1.60;;
11761;SDS011;5938;47.098;15.474;2023-04-02T16:30:16;1.33;;;0.90;;
11761;SDS011;5938;47.098;15.474;2023-04-02T16:34:38;0.50;;;0.40;;
11761;SDS011;5938;47.098;15.474;2023-04-02T16:38:54;0.30;;;0.30;;
11761;SDS011;5938;47.098;15.474;2023-04-02T16:43:05;0.40;;;0.30;;
11761;SDS011;5938;47.098;15.474;2023-04-02T16:47:28;0.40;;;0.30;;
11761;SDS011;5938;47.098;15.474;2023-04-02T16:52:00;0.30;;;0.30;;
11761;SDS011;5938;47.098;15.474;2023-04-02T16:56:29;1.03;;;0.50;;
11761;SDS011;5938;47.098;15.474;2023-04-02T17:00:44;0.57;;;0.40;;
11761;SDS011;5938;47.098;15.474;2023-04-02T17:05:08;0.90;;;0.90;;
11761;SDS011;5938;47.098;15.474;2023-04-02T17:09:27;1.77;;;0.60;;
11761;SDS011;5938;47.098;15.474;2023-04-02T17:13:38;0.40;;;0.40;;
11761;SDS011;5938;47.098;15.474;2023-04-02T17:17:43;0.70;;;0.60;;
11761;SDS011;5938;47.098;15.474;2023-04-02T17:21:51;0.67;;;0.47;;
11761;SDS011;5938;47.098;15.474;2023-04-02T17:26:05;2.40;;;1.07;;
11761;SDS011;5938;47.098;15.474;2023-04-02T17:30:14;1.03;;;1.00;;
11761;SDS011;5938;47.098;15.474;2023-04-02T17:34:21;2.10;;;1.53;;
11761;SDS011;5938;47.098;15.474;2023-04-02T17:38:30;1.40;;;0.90;;
11761;SDS011;5938;47.098;15.474;2023-04-02T17:42:43;0.60;;;0.60;;
11761;SDS011;5938;47.098;15.474;2023-04-02T17:46:55;1.57;;;1.00;;
11761;SDS011;5938;47.098;15.474;2023-04-02T17:51:09;1.03;;;0.80;;
11761;SDS011;5938;47.098;15.474;2023-04-02T17:55:26;3.70;;;2.60;;
11761;SDS011;5938;47.098;15.474;2023-04-02T17:59:46;11.10;;;6.90;;
11761;SDS011;5938;47.098;15.474;2023-04-02T18:04:09;1.20;;;1.10;;
11761;SDS011;5938;47.098;15.474;2023-04-02T18:08:25;0.67;;;0.60;;
11761;SDS011;5938;47.098;15.474;2023-04-02T18:12:49;0.70;;;0.70;;
11761;SDS011;5938;47.098;15.474;2023-04-02T18:17:02;0.80;;;0.80;;
11761;SDS011;5938;47.098;15.474;2023-04-02T18:21:23;0.50;;;0.50;;
11761;SDS011;5938;47.098;15.474;2023-04-02T18:25:38;0.80;;;0.40;;
11761;SDS011;5938;47.098;15.474;2023-04-02T18:30:00;1.40;;;0.60;;
11761;SDS011;5938;47.098;15.474;2023-04-02T18:34:22;0.93;;;0.60;;
11761;SDS011;5938;47.098;15.474;2023-04-02T18:38:51;0.70;;;0.50;;
11761;SDS011;5938;47.098;15.474;2023-04-02T18:43:09;0.30;;;0.30;;
11761;SDS011;5938;47.098;15.474;2023-04-02T18:47:32;0.40;;;0.40;;
11761;SDS011;5938;47.098;15.474;2023-04-02T18:51:48;0.50;;;0.40;;
11761;SDS011;5938;47.098;15.474;2023-04-02T18:56:02;1.70;;;0.70;;
11761;SDS011;5938;47.098;15.474;2023-04-02T19:04:28;0.70;;;0.60;;
11761;SDS011;5938;47.098;15.474;2023-04-02T19:08:37;0.50;;;0.40;;
11761;SDS011;5938;47.098;15.474;2023-04-02T19:12:49;0.40;;;0.40;;
11761;SDS011;5938;47.098;15.474;2023-04-02T19:16:59;0.47;;;0.47;;
11761;SDS011;5938;47.098;15.474;2023-04-02T19:21:15;0.40;;;0.40;;
11761;SDS011;5938;47.098;15.474;2023-04-02T19:25:35;1.90;;;0.50;;
11761;SDS011;5938;47.098;15.474;2023-04-02T19:29:52;0.40;;;0.40;;
11761;SDS011;5938;47.098;15.474;2023-04-02T19:34:07;0.50;;;0.40;;
11761;SDS011;5938;47.098;15.474;2023-04-02T19:38:38;0.40;;;0.40;;
11761;SDS011;5938;47.098;15.474;2023-04-02T19:42:57;0.53;;;0.53;;
11761;SDS011;5938;47.098;15.474;2023-04-02T19:47:11;0.40;;;0.37;;
11761;SDS011;5938;47.098;15.474;2023-04-02T19:51:20;0.40;;;0.30;;
11761;SDS011;5938;47.098;15.474;2023-04-02T19:55:27;0.50;;;0.50;;
11761;SDS011;5938;47.098;15.474;2023-04-02T19:59:33;0.40;;;0.40;;
11761;SDS011;5938;47.098;15.474;2023-04-02T20:03:43;0.70;;;0.60;;
11761;SDS011;5938;47.098;15.474;2023-04-02T20:07:48;0.60;;;0.60;;
11761;SDS011;5938;47.098;15.474;2023-04-02T20:11:55;0.87;;;0.73;;
11761;SDS011;5938;47.098;15.474;2023-04-02T20:16:03;0.80;;;0.80;;
11761;SDS011;5938;47.098;15.474;2023-04-02T20:20:09;0.40;;;0.37;;
11761;SDS011;5938;47.098;15.474;2023-04-02T20:24:17;0.60;;;0.50;;
11761;SDS011;5938;47.098;15.474;2023-04-02T20:28:25;0.50;;;0.50;;
11761;SDS011;5938;47.098;15.474;2023-04-02T20:32:31;0.40;;;0.40;;
11761;SDS011;5938;47.098;15.474;2023-04-02T20:36:39;0.70;;;0.70;;
11761;SDS011;5938;47.098;15.474;2023-04-02T20:40:45;1.00;;;0.80;;
11761;SDS011;5938;47.098;15.474;2023-04-02T20:44:58;0.50;;;0.50;;
11761;SDS011;5938;47.098;15.474;2023-04-02T20:49:01;0.50;;;0.50;;
11761;SDS011;5938;47.098;15.474;2023-04-02T20:53:06;1.10;;;0.67;;
11761;SDS011;5938;47.098;15.474;2023-04-02T20:57:10;0.70;;;0.70;;
11761;SDS011;5938;47.098;15.474;2023-04-02T21:01:17;0.60;;;0.60;;
11761;SDS011;5938;47.098;15.474;2023-04-02T21:05:22;0.90;;;0.90;;
11761;SDS011;5938;47.098;15.474;2023-04-02T21:09:26;0.97;;;0.90;;
11761;SDS011;5938;47.098;15.474;2023-04-02T21:13:29;1.53;;;1.03;;
11761;SDS011;5938;47.098;15.474;2023-04-02T21:17:34;1.10;;;1.00;;
11761;SDS011;5938;47.098;15.474;2023-04-02T21:21:39;1.30;;;0.90;;
11761;SDS011;5938;47.098;15.474;2023-04-02T21:25:52;1.27;;;1.13;;
11761;SDS011;5938;47.098;15.474;2023-04-02T21:29:56;0.87;;;0.87;;
11761;SDS011;5938;47.098;15.474;2023-04-02T21:34:02;1.47;;;1.10;;
11761;SDS011;5938;47.098;15.474;2023-04-02T21:38:06;1.87;;;1.30;;
11761;SDS011;5938;47.098;15.474;2023-04-02T21:42:09;1.60;;;1.50;;
11761;SDS011;5938;47.098;15.474;2023-04-02T21:46:14;1.40;;;1.30;;
11761;SDS011;5938;47.098;15.474;2023-04-02T21:50:20;1.63;;;1.53;;
11761;SDS011;5938;47.098;15.474;2023-04-02T21:54:23;2.47;;;1.97;;
11761;SDS011;5938;47.098;15.474;2023-04-02T21:58:26;3.37;;;1.33;;
11761;SDS011;5938;47.098;15.474;2023-04-02T22:02:30;1.70;;;1.60;;
11761;SDS011;5938;47.098;15.474;2023-04-02T22:06:36;2.50;;;1.30;;
11761;SDS011;5938;47.098;15.474;2023-04-02T22:10:41;4.37;;;2.70;;
11761;SDS011;5938;47.098;15.474;2023-04-02T22:14:44;2.23;;;2.03;;
11761;SDS011;5938;47.098;15.474;2023-04-02T22:18:48;1.00;;;1.00;;
11761;SDS011;5938;47.098;15.474;2023-04-02T22:22:54;1.47;;;1.37;;
11761;SDS011;5938;47.098;15.474;2023-04-02T22:26:57;1.50;;;1.40;;
11761;SDS011;5938;47.098;15.474;2023-04-02T22:31:02;1.77;;;1.67;;
11761;SDS011;5938;47.098;15.474;2023-04-02T22:35:07;2.00;;;1.70;;
11761;SDS011;5938;47.098;15.474;2023-04-02T22:39:12;2.30;;;1.80;;
11761;SDS011;5938;47.098;15.474;2023-04-02T22:43:17;2.17;;;1.80;;
11761;SDS011;5938;47.098;15.474;2023-04-02T22:47:20;2.00;;;1.60;;
11761;SDS011;5938;47.098;15.474;2023-04-02T22:51:24;1.70;;;1.60;;
11761;SDS011;5938;47.098;15.474;2023-04-02T22:55:29;2.03;;;1.80;;
11761;SDS011;5938;47.098;15.474;2023-04-02T22:59:33;1.70;;;1.60;;
11761;SDS011;5938;47.098;15.474;2023-04-02T23:03:37;2.10;;;1.90;;
11761;SDS011;5938;47.098;15.474;2023-04-02T23:07:40;3.23;;;1.67;;
11761;SDS011;5938;47.098;15.474;2023-04-02T23:11:45;1.80;;;1.70;;
11761;SDS011;5938;47.098;15.474;2023-04-02T23:15:48;2.10;;;1.90;;
11761;SDS011;5938;47.098;15.474;2023-04-02T23:19:52;1.90;;;1.80;;
11761;SDS011;5938;47.098;15.474;2023-04-02T23:23:55;1.70;;;1.60;;
11761;SDS011;5938;47.098;15.474;2023-04-02T23:28:00;1.87;;;1.73;;
11761;SDS011;5938;47.098;15.474;2023-04-02T23:32:03;1.70;;;1.60;;
11761;SDS011;5938;47.098;15.474;2023-04-02T23:36:07;2.47;;;1.70;;
11761;SDS011;5938;47.098;15.474;2023-04-02T23:40:12;1.77;;;1.50;;
11761;SDS011;5938;47.098;15.474;2023-04-02T23:44:16;2.53;;;2.00;;
11761;SDS011;5938;47.098;15.474;2023-04-02T23:48:20;2.00;;;1.90;;
11761;SDS011;5938;47.098;15.474;2023-04-02T23:52:23;2.37;;;1.77;;
11761;SDS011;5938;47.098;15.474;2023-04-02T23:56:27;2.10;;;1.57;;
